Time;durP1;ratioP1;P1;durP2;ratioP2;P2;SDS_P1;SDS_P2;PMS_P1;PMS_P2;Temp;Humidity;BMP_temperature;BMP_pressure;BME280_temperature;BME280_humidity;BME280_pressure;Samples;Min_cycle;Max_cycle;Signal;HPM_P1;HPM_P2
2021/09/05 00:00:26;;;;;;;18.23;8.18;;;;;;;;;;5038418;28;20090;-77
2021/09/05 00:02:52;;;;;;;16.90;8.70;;;;;;;;;;5038307;28;20402;-77
2021/09/05 00:05:17;;;;;;;23.65;9.63;;;;;;;;;;5054963;28;20033;-77
2021/09/05 00:07:43;;;;;;;27.73;10.57;;;;;;;;;;5054787;28;20033;-77
2021/09/05 00:10:09;;;;;;;22.23;8.77;;;;;;;;;;5037820;28;20041;-77
2021/09/05 00:12:36;;;;;;;13.85;7.97;;;;;;;;;;5054254;28;20051;-77
2021/09/05 00:15:04;;;;;;;28.13;11.18;;;;;;;;;;5017992;28;20033;-77
2021/09/05 00:17:30;;;;;;;26.02;10.38;;;;;;;;;;5034316;28;20029;-77
2021/09/05 00:19:55;;;;;;;20.70;10.00;;;;;;;;;;5018073;28;20052;-77
2021/09/05 00:22:21;;;;;;;21.05;9.05;;;;;;;;;;5034445;28;20067;-77
2021/09/05 00:24:46;;;;;;;21.25;9.38;;;;;;;;;;5017869;28;20033;-77
2021/09/05 00:27:12;;;;;;;28.60;11.15;;;;;;;;;;5017883;28;20037;-77
2021/09/05 00:29:37;;;;;;;22.80;11.00;;;;;;;;;;5034091;28;20039;-77
2021/09/05 00:32:03;;;;;;;16.80;10.55;;;;;;;;;;5017541;28;20125;-77
2021/09/05 00:34:29;;;;;;;21.38;11.48;;;;;;;;;;5034316;28;20088;-77
2021/09/05 00:36:56;;;;;;;21.23;10.93;;;;;;;;;;5018197;28;20025;-77
2021/09/05 00:39:22;;;;;;;19.65;11.45;;;;;;;;;;5042678;28;20057;-77
2021/09/05 00:41:47;;;;;;;13.95;10.40;;;;;;;;;;5036288;28;20099;-78
2021/09/05 00:44:13;;;;;;;20.52;10.13;;;;;;;;;;5037406;28;20078;-77
2021/09/05 00:46:39;;;;;;;14.05;10.20;;;;;;;;;;5054097;28;20033;-77
2021/09/05 00:49:06;;;;;;;17.02;8.60;;;;;;;;;;5036834;28;20029;-77
2021/09/05 00:51:37;;;;;;;19.35;9.55;;;;;;;;;;5037537;28;20033;-77
2021/09/05 00:54:08;;;;;;;15.05;10.00;;;;;;;;;;5037737;28;20040;-77
2021/09/05 00:56:36;;;;;;;12.13;8.00;;;;;;;;;;5054951;28;20477;-77
2021/09/05 00:59:10;;;;;;;19.23;8.75;;;;;;;;;;5036356;28;20402;-77
2021/09/05 01:01:36;;;;;;;26.42;8.80;;;;;;;;;;5054907;28;20057;-77
2021/09/05 01:04:04;;;;;;;44.05;8.82;;;;;;;;;;5037781;28;20028;-77
2021/09/05 01:06:32;;;;;;;23.17;7.65;;;;;;;;;;5053817;28;20112;-77
2021/09/05 01:09:00;;;;;;;65.85;8.95;;;;;;;;;;5054499;28;20033;-77
2021/09/05 01:11:27;;;;;;;95.47;7.88;;;;;;;;;;5035264;28;20491;-77
2021/09/05 01:13:54;;;;;;;25.08;8.02;;;;;;;;;;5033707;28;20479;-77
2021/09/05 01:16:47;;;;;;;35.78;8.73;;;;;;;;;;5033722;28;20116;-77
2021/09/05 01:19:40;;;;;;;21.15;7.40;;;;;;;;;;5035541;28;20396;-78
2021/09/05 01:22:27;;;;;;;40.47;7.18;;;;;;;;;;5021157;28;20033;-78
2021/09/05 01:25:11;;;;;;;21.67;7.82;;;;;;;;;;5034130;28;20537;-77
2021/09/05 01:27:55;;;;;;;13.02;7.47;;;;;;;;;;5047958;28;20051;-77
2021/09/05 01:30:39;;;;;;;9.07;7.65;;;;;;;;;;5054689;28;20174;-78
2021/09/05 01:33:25;;;;;;;18.25;8.18;;;;;;;;;;5054296;28;20057;-77
2021/09/05 01:36:29;;;;;;;39.42;8.68;;;;;;;;;;5054107;28;20032;-77
2021/09/05 01:39:16;;;;;;;15.07;7.93;;;;;;;;;;5046523;28;20033;-77
2021/09/05 01:42:01;;;;;;;10.63;7.32;;;;;;;;;;5034430;28;20087;-77
2021/09/05 01:44:58;;;;;;;25.67;7.47;;;;;;;;;;5034183;28;20093;-78
2021/09/05 01:47:42;;;;;;;11.38;6.38;;;;;;;;;;5035397;28;20044;-78
2021/09/05 01:50:26;;;;;;;16.88;6.25;;;;;;;;;;5036060;28;20502;-78
2021/09/05 01:53:11;;;;;;;7.18;6.18;;;;;;;;;;5034063;28;20040;-77
2021/09/05 01:55:55;;;;;;;12.32;6.68;;;;;;;;;;5034296;28;20033;-78
2021/09/05 01:58:39;;;;;;;15.88;6.38;;;;;;;;;;5053361;28;20086;-78
2021/09/05 02:01:25;;;;;;;7.88;6.15;;;;;;;;;;5055724;28;20180;-77
2021/09/05 02:04:23;;;;;;;9.98;6.55;;;;;;;;;;5049487;28;20090;-78
2021/09/05 02:07:09;;;;;;;7.55;6.40;;;;;;;;;;5055063;28;20036;-78
2021/09/05 02:09:54;;;;;;;7.97;5.88;;;;;;;;;;5037746;28;20036;-78
2021/09/05 02:12:46;;;;;;;21.17;6.57;;;;;;;;;;5034430;28;20526;-77
2021/09/05 02:15:30;;;;;;;9.98;6.22;;;;;;;;;;5034027;28;20067;-78
2021/09/05 02:18:34;;;;;;;9.50;5.93;;;;;;;;;;5034142;28;20038;-77
2021/09/05 02:21:22;;;;;;;7.57;6.25;;;;;;;;;;5035133;28;20384;-78
2021/09/05 02:24:08;;;;;;;26.13;7.45;;;;;;;;;;5033625;28;20029;-78
2021/09/05 02:27:01;;;;;;;16.23;7.13;;;;;;;;;;5021365;28;20044;-78
2021/09/05 02:29:45;;;;;;;16.52;7.25;;;;;;;;;;5034799;28;20543;-78
2021/09/05 02:32:33;;;;;;;14.73;7.90;;;;;;;;;;5020686;28;20072;-78
2021/09/05 02:35:21;;;;;;;8.50;6.93;;;;;;;;;;5020394;28;20103;-78
2021/09/05 02:38:04;;;;;;;13.23;7.90;;;;;;;;;;5020533;28;20484;-78
2021/09/05 02:40:49;;;;;;;9.50;7.68;;;;;;;;;;5053846;28;20406;-78
2021/09/05 02:43:35;;;;;;;21.65;8.23;;;;;;;;;;5054155;28;20059;-78
2021/09/05 02:46:23;;;;;;;28.10;8.85;;;;;;;;;;5054059;28;20037;-78
2021/09/05 02:49:27;;;;;;;22.23;9.68;;;;;;;;;;5021183;28;20037;-78
2021/09/05 02:52:12;;;;;;;10.38;8.60;;;;;;;;;;5016673;28;20176;-78
2021/09/05 02:54:56;;;;;;;16.63;8.15;;;;;;;;;;5043055;28;20402;-78
2021/09/05 02:57:44;;;;;;;14.52;9.30;;;;;;;;;;5051708;28;20218;-78
2021/09/05 03:00:30;;;;;;;10.00;7.93;;;;;;;;;;5052799;28;20040;-78
2021/09/05 03:03:14;;;;;;;11.13;8.20;;;;;;;;;;5053954;28;20052;-78
2021/09/05 03:05:57;;;;;;;25.05;9.25;;;;;;;;;;5042965;28;20126;-78
2021/09/05 03:08:44;;;;;;;14.40;8.75;;;;;;;;;;5056600;28;20150;-78
2021/09/05 03:11:45;;;;;;;12.48;8.52;;;;;;;;;;5049919;28;20056;-78
2021/09/05 03:14:29;;;;;;;10.75;8.23;;;;;;;;;;5057816;28;20095;-78
2021/09/05 03:17:15;;;;;;;20.00;8.75;;;;;;;;;;5056372;28;20448;-78
2021/09/05 03:19:57;;;;;;;18.98;8.23;;;;;;;;;;5042095;28;20064;-78
2021/09/05 03:22:39;;;;;;;18.38;8.32;;;;;;;;;;5042729;28;20439;-77
2021/09/05 03:25:21;;;;;;;16.45;8.35;;;;;;;;;;5037335;28;20038;-78
2021/09/05 03:28:09;;;;;;;14.90;8.25;;;;;;;;;;5037542;28;20037;-78
2021/09/05 03:30:58;;;;;;;19.83;8.80;;;;;;;;;;5028024;28;20034;-78
2021/09/05 03:33:55;;;;;;;16.73;7.63;;;;;;;;;;5038362;28;20403;-78
2021/09/05 03:36:53;;;;;;;11.68;8.35;;;;;;;;;;5039021;28;20029;-78
2021/09/05 03:39:37;;;;;;;105.20;8.23;;;;;;;;;;5037493;28;20072;-78
2021/09/05 03:42:21;;;;;;;31.73;8.07;;;;;;;;;;5037482;28;20565;-78
2021/09/05 03:45:05;;;;;;;121.18;9.98;;;;;;;;;;5038579;28;20045;-77
2021/09/05 03:48:03;;;;;;;76.30;9.07;;;;;;;;;;5026297;28;20057;-78
2021/09/05 03:50:55;;;;;;;25.08;9.00;;;;;;;;;;5023675;28;20037;-78
2021/09/05 03:53:21;;;;;;;30.30;9.65;;;;;;;;;;5019931;28;20033;-78
2021/09/05 03:55:50;;;;;;;37.90;8.82;;;;;;;;;;5020710;28;20038;-78
2021/09/05 03:58:17;;;;;;;17.80;8.65;;;;;;;;;;5020312;28;20491;-78
2021/09/05 04:00:43;;;;;;;15.00;8.45;;;;;;;;;;5020258;28;20478;-78
2021/09/05 04:03:11;;;;;;;18.00;7.10;;;;;;;;;;5020751;28;20036;-78
2021/09/05 04:05:37;;;;;;;14.73;7.30;;;;;;;;;;5020607;28;20028;-78
2021/09/05 04:10:32;;;;;;;7.25;6.30;;;;;;;;;;5055302;28;20104;-78
2021/09/05 04:12:59;;;;;;;12.70;7.50;;;;;;;;;;5039558;28;20044;-77
2021/09/05 04:15:26;;;;;;;13.93;7.30;;;;;;;;;;5056148;28;20110;-78
2021/09/05 04:17:52;;;;;;;14.05;7.13;;;;;;;;;;5057412;28;20044;-78
2021/09/05 04:20:18;;;;;;;13.20;7.25;;;;;;;;;;5039413;28;20037;-78
2021/09/05 04:22:44;;;;;;;16.33;6.85;;;;;;;;;;5039977;28;20091;-78
2021/09/05 04:25:10;;;;;;;21.30;6.38;;;;;;;;;;5051639;28;20040;-78
2021/09/05 04:27:35;;;;;;;9.25;6.80;;;;;;;;;;5059850;28;20397;-78
2021/09/05 04:30:01;;;;;;;10.52;6.32;;;;;;;;;;5077099;28;20119;-78
2021/09/05 04:32:27;;;;;;;25.35;6.38;;;;;;;;;;5059175;28;20132;-78
2021/09/05 04:34:52;;;;;;;25.20;6.60;;;;;;;;;;5075228;28;20094;-77
2021/09/05 04:37:19;;;;;;;8.57;5.97;;;;;;;;;;5076197;28;20525;-77
2021/09/05 04:39:48;;;;;;;14.07;8.15;;;;;;;;;;5032404;28;20498;-78
2021/09/05 04:42:13;;;;;;;26.42;6.93;;;;;;;;;;5035868;28;20483;-78
2021/09/05 04:44:40;;;;;;;27.80;8.00;;;;;;;;;;5018727;28;20045;-78
2021/09/05 04:47:06;;;;;;;9.93;7.53;;;;;;;;;;5019066;28;20079;-78
2021/09/05 04:49:32;;;;;;;12.82;6.82;;;;;;;;;;5019374;28;20128;-77
2021/09/05 04:51:59;;;;;;;13.27;6.80;;;;;;;;;;5035410;28;20060;-77
2021/09/05 04:54:25;;;;;;;50.53;7.95;;;;;;;;;;5034341;28;20450;-78
2021/09/05 04:56:57;;;;;;;15.50;7.00;;;;;;;;;;5035166;28;20133;-78
2021/09/05 04:59:23;;;;;;;23.25;7.10;;;;;;;;;;5033785;28;20034;-78
2021/09/05 05:01:48;;;;;;;70.60;7.38;;;;;;;;;;5035460;28;20395;-77
2021/09/05 05:04:14;;;;;;;36.47;7.10;;;;;;;;;;5036314;28;20044;-78
2021/09/05 05:06:41;;;;;;;10.35;7.00;;;;;;;;;;5018466;28;20045;-78
2021/09/05 05:09:10;;;;;;;9.07;6.47;;;;;;;;;;5047547;28;20026;-78
2021/09/05 05:11:37;;;;;;;23.35;7.85;;;;;;;;;;5035278;28;20491;-78
2021/09/05 05:14:05;;;;;;;34.70;7.18;;;;;;;;;;5017425;28;20467;-77
2021/09/05 05:16:33;;;;;;;39.85;7.72;;;;;;;;;;5017713;28;20091;-78
2021/09/05 05:18:58;;;;;;;13.13;6.40;;;;;;;;;;5017353;28;20153;-77
2021/09/05 05:21:26;;;;;;;9.75;7.00;;;;;;;;;;5033499;28;20116;-77
2021/09/05 05:23:52;;;;;;;13.43;6.93;;;;;;;;;;5024857;28;20441;-77
2021/09/05 05:26:18;;;;;;;20.38;6.97;;;;;;;;;;5037322;28;20029;-78
2021/09/05 05:28:43;;;;;;;39.38;6.82;;;;;;;;;;5052962;28;20033;-77
2021/09/05 05:31:10;;;;;;;49.50;7.15;;;;;;;;;;5053498;28;20032;-78
2021/09/05 05:33:36;;;;;;;58.05;8.13;;;;;;;;;;5036247;28;20052;-78
2021/09/05 05:36:01;;;;;;;68.25;7.60;;;;;;;;;;5053509;28;20033;-78
2021/09/05 05:38:28;;;;;;;93.88;7.80;;;;;;;;;;5035925;28;20047;-78
2021/09/05 05:40:53;;;;;;;18.23;6.63;;;;;;;;;;5053027;28;20029;-77
2021/09/05 05:43:19;;;;;;;25.50;6.05;;;;;;;;;;5053373;28;20494;-77
2021/09/05 05:45:45;;;;;;;56.58;7.38;;;;;;;;;;5052919;28;20039;-77
2021/09/05 05:48:11;;;;;;;108.93;8.02;;;;;;;;;;5053093;28;20063;-77
2021/09/05 05:50:37;;;;;;;33.30;6.57;;;;;;;;;;5052220;28;20117;-78
2021/09/05 05:53:03;;;;;;;13.95;7.05;;;;;;;;;;5036434;28;20064;-78
2021/09/05 05:55:28;;;;;;;31.60;7.57;;;;;;;;;;5052988;28;20490;-77
2021/09/05 05:57:54;;;;;;;21.98;6.70;;;;;;;;;;5052451;28;20033;-77
2021/09/05 06:00:24;;;;;;;13.07;6.53;;;;;;;;;;5052341;28;20414;-78
2021/09/05 06:02:51;;;;;;;18.60;6.50;;;;;;;;;;5052587;28;20029;-77
2021/09/05 06:05:16;;;;;;;185.15;8.82;;;;;;;;;;5036042;28;20053;-77
2021/09/05 06:07:41;;;;;;;41.42;6.45;;;;;;;;;;5052435;28;20052;-77
2021/09/05 06:10:07;;;;;;;9.95;5.93;;;;;;;;;;5053814;28;20029;-77
2021/09/05 06:12:33;;;;;;;14.68;6.47;;;;;;;;;;5052453;28;20397;-77
2021/09/05 06:14:59;;;;;;;16.50;6.03;;;;;;;;;;5035804;28;20517;-78
2021/09/05 06:17:24;;;;;;;16.02;6.90;;;;;;;;;;5052823;28;20040;-77
2021/09/05 06:19:50;;;;;;;175.80;9.93;;;;;;;;;;5035252;28;20055;-77
2021/09/05 06:22:15;;;;;;;232.88;9.70;;;;;;;;;;5035738;28;20060;-77
2021/09/05 06:24:41;;;;;;;37.90;6.15;;;;;;;;;;5052141;28;20379;-77
2021/09/05 06:27:07;;;;;;;21.73;5.55;;;;;;;;;;5035914;28;20410;-77
2021/09/05 06:29:33;;;;;;;24.83;5.90;;;;;;;;;;5035824;28;20017;-78
2021/09/05 06:31:58;;;;;;;174.45;8.10;;;;;;;;;;5035444;28;20076;-77
2021/09/05 06:34:23;;;;;;;14.52;5.57;;;;;;;;;;5051980;28;20056;-78
2021/09/05 06:36:49;;;;;;;8.05;5.68;;;;;;;;;;5051806;28;20498;-78
2021/09/05 06:39:14;;;;;;;96.57;7.00;;;;;;;;;;5036147;28;20037;-77
2021/09/05 06:41:40;;;;;;;6.25;5.05;;;;;;;;;;5056307;28;20041;-77
2021/09/05 06:44:05;;;;;;;25.67;6.15;;;;;;;;;;5039661;28;20120;-78
2021/09/05 06:46:31;;;;;;;42.33;6.18;;;;;;;;;;5050659;28;20484;-77
2021/09/05 06:48:57;;;;;;;84.30;6.57;;;;;;;;;;5037977;28;20112;-78
2021/09/05 06:51:24;;;;;;;13.07;5.60;;;;;;;;;;5038661;28;20140;-77
2021/09/05 06:53:50;;;;;;;5.85;5.15;;;;;;;;;;5023162;28;20037;-78
2021/09/05 06:56:15;;;;;;;5.85;4.60;;;;;;;;;;5042216;28;20116;-81
2021/09/05 06:58:41;;;;;;;119.38;7.05;;;;;;;;;;5022908;28;20040;-77
2021/09/05 07:01:06;;;;;;;93.50;6.30;;;;;;;;;;5037629;28;20033;-77
2021/09/05 07:03:32;;;;;;;8.63;5.00;;;;;;;;;;5038372;28;20033;-77
2021/09/05 07:05:58;;;;;;;6.70;4.80;;;;;;;;;;5021076;28;20045;-77
2021/09/05 07:08:23;;;;;;;5.93;4.88;;;;;;;;;;5023469;28;20033;-76
2021/09/05 07:10:48;;;;;;;6.15;4.53;;;;;;;;;;5083476;28;20094;-78
2021/09/05 07:13:14;;;;;;;6.28;4.85;;;;;;;;;;5065979;28;20033;-79
2021/09/05 07:15:39;;;;;;;6.85;5.00;;;;;;;;;;5081668;28;20074;-79
2021/09/05 07:18:05;;;;;;;89.28;6.20;;;;;;;;;;5080397;28;20119;-78
2021/09/05 07:20:30;;;;;;;23.25;5.63;;;;;;;;;;5064215;28;20055;-79
2021/09/05 07:22:56;;;;;;;7.93;4.43;;;;;;;;;;5064094;28;20541;-80
2021/09/05 07:25:22;;;;;;;5.30;4.10;;;;;;;;;;5079034;28;20024;-81
2021/09/05 07:27:48;;;;;;;5.25;4.38;;;;;;;;;;5063294;28;20029;-81
2021/09/05 07:30:15;;;;;;;6.45;4.88;;;;;;;;;;5064082;28;20492;-80
2021/09/05 07:32:41;;;;;;;5.10;4.43;;;;;;;;;;5063852;28;20049;-81
2021/09/05 07:35:07;;;;;;;5.95;4.13;;;;;;;;;;5063413;28;20044;-83
2021/09/05 07:37:34;;;;;;;7.63;4.50;;;;;;;;;;5062499;28;20029;-82
2021/09/05 07:39:59;;;;;;;5.80;4.53;;;;;;;;;;5040070;28;20030;-82
2021/09/05 07:42:25;;;;;;;6.05;4.45;;;;;;;;;;5039100;28;20037;-81
2021/09/05 07:44:51;;;;;;;7.55;4.57;;;;;;;;;;5045617;28;20135;-82
2021/09/05 07:47:17;;;;;;;5.60;4.57;;;;;;;;;;5059840;28;20494;-82
2021/09/05 07:49:42;;;;;;;7.93;4.18;;;;;;;;;;5043176;28;20410;-81
2021/09/05 07:52:07;;;;;;;6.43;4.50;;;;;;;;;;5059235;28;20032;-82
2021/09/05 07:54:33;;;;;;;6.10;4.45;;;;;;;;;;5042457;28;20041;-82
2021/09/05 07:57:00;;;;;;;5.45;4.40;;;;;;;;;;5042686;28;20033;-81
2021/09/05 07:59:25;;;;;;;5.50;4.45;;;;;;;;;;5040331;28;20040;-81
2021/09/05 08:01:51;;;;;;;7.10;5.15;;;;;;;;;;5040269;28;20036;-79
2021/09/05 08:04:16;;;;;;;8.38;5.00;;;;;;;;;;5055949;28;20041;-80
2021/09/05 08:06:42;;;;;;;8.25;5.10;;;;;;;;;;5040126;28;20123;-81
2021/09/05 08:09:08;;;;;;;6.00;5.15;;;;;;;;;;5023913;28;20520;-80
2021/09/05 08:11:36;;;;;;;8.98;5.47;;;;;;;;;;5038544;28;20038;-82
2021/09/05 08:14:02;;;;;;;9.30;4.78;;;;;;;;;;5039279;28;20030;-82
2021/09/05 08:16:27;;;;;;;15.70;6.32;;;;;;;;;;5037648;28;20041;-83
2021/09/05 08:18:53;;;;;;;7.68;4.90;;;;;;;;;;5041457;28;20033;-83
2021/09/05 08:21:20;;;;;;;5.70;4.63;;;;;;;;;;5029048;28;20087;-83
2021/09/05 08:23:45;;;;;;;8.65;4.75;;;;;;;;;;5033652;28;20052;-81
2021/09/05 08:26:12;;;;;;;7.50;5.55;;;;;;;;;;5032694;28;20029;-84
2021/09/05 08:28:40;;;;;;;10.88;6.65;;;;;;;;;;5032001;28;20476;-83
2021/09/05 08:31:05;;;;;;;7.50;5.10;;;;;;;;;;5032550;28;20029;-84
2021/09/05 08:33:31;;;;;;;8.50;5.25;;;;;;;;;;4993999;28;1037816;-84
2021/09/05 08:35:57;;;;;;;6.63;4.65;;;;;;;;;;5030135;28;20403;-80
2021/09/05 08:38:24;;;;;;;8.43;4.55;;;;;;;;;;5039636;28;20033;-83
2021/09/05 08:40:51;;;;;;;5.72;4.28;;;;;;;;;;5020712;28;20048;-84
2021/09/05 08:43:21;;;;;;;6.93;4.47;;;;;;;;;;5019913;28;20503;-86
2021/09/05 08:45:48;;;;;;;7.38;5.45;;;;;;;;;;5018533;28;20531;-85
2021/09/05 08:48:18;;;;;;;9.98;5.28;;;;;;;;;;5017969;28;20373;-85
2021/09/05 08:50:50;;;;;;;10.18;6.15;;;;;;;;;;5017635;28;20099;-85
2021/09/05 08:53:16;;;;;;;10.82;5.78;;;;;;;;;;5021232;28;20069;-84
2021/09/05 08:55:43;;;;;;;9.55;6.30;;;;;;;;;;5039842;28;20044;-81
2021/09/05 08:58:09;;;;;;;10.77;6.65;;;;;;;;;;5021911;28;20025;-81
2021/09/05 09:00:36;;;;;;;8.88;5.78;;;;;;;;;;5019529;28;20037;-83
2021/09/05 09:03:04;;;;;;;9.15;6.03;;;;;;;;;;5035495;28;20029;-87
2021/09/05 09:05:41;;;;;;;10.77;6.07;;;;;;;;;;5017854;28;20049;-84
2021/09/05 09:08:10;;;;;;;11.85;7.28;;;;;;;;;;5035551;28;20029;-83
2021/09/05 09:10:48;;;;;;;13.63;7.53;;;;;;;;;;5031716;28;20029;-80
2021/09/05 09:13:24;;;;;;;13.25;6.63;;;;;;;;;;5042460;28;20036;-82
2021/09/05 09:15:49;;;;;;;12.70;7.20;;;;;;;;;;5057330;28;20090;-84
2021/09/05 09:18:23;;;;;;;10.55;6.68;;;;;;;;;;5040281;28;20037;-78
2021/09/05 09:20:49;;;;;;;18.92;8.52;;;;;;;;;;5057119;28;20372;-81
2021/09/05 09:23:20;;;;;;;15.23;7.63;;;;;;;;;;5038583;28;20035;-79
2021/09/05 09:25:57;;;;;;;11.15;7.05;;;;;;;;;;5042238;28;20071;-81
2021/09/05 09:28:44;;;;;;;12.80;7.35;;;;;;;;;;5060327;28;20037;-80
2021/09/05 09:31:27;;;;;;;12.63;7.22;;;;;;;;;;5059924;28;20045;-83
2021/09/05 09:33:57;;;;;;;15.02;6.47;;;;;;;;;;5043182;28;20041;-83
2021/09/05 09:36:26;;;;;;;13.80;7.38;;;;;;;;;;5059521;28;20379;-83
2021/09/05 09:38:53;;;;;;;12.80;7.88;;;;;;;;;;5042273;28;20545;-82
2021/09/05 09:41:20;;;;;;;15.00;7.70;;;;;;;;;;5025722;28;20033;-83
2021/09/05 09:43:58;;;;;;;13.00;7.50;;;;;;;;;;5040690;28;20033;-84
2021/09/05 09:46:25;;;;;;;12.13;8.00;;;;;;;;;;5042815;28;20493;-79
2021/09/05 09:48:53;;;;;;;11.32;7.30;;;;;;;;;;5061513;28;20040;-83
2021/09/05 09:51:20;;;;;;;22.85;7.20;;;;;;;;;;5057188;28;20037;-81
2021/09/05 09:53:46;;;;;;;9.85;6.90;;;;;;;;;;5057583;28;20090;-78
2021/09/05 09:56:17;;;;;;;13.00;7.13;;;;;;;;;;5055080;28;20048;-78
2021/09/05 09:58:45;;;;;;;9.75;6.28;;;;;;;;;;5042640;28;20040;-76
2021/09/05 10:01:16;;;;;;;11.10;7.28;;;;;;;;;;5041206;28;20039;-76
2021/09/05 10:03:43;;;;;;;20.70;14.07;;;;;;;;;;5038380;28;20131;-81
2021/09/05 10:06:13;;;;;;;14.13;7.50;;;;;;;;;;5041393;28;20029;-80
2021/09/05 10:08:46;;;;;;;12.27;7.00;;;;;;;;;;5058428;28;20033;-81
2021/09/05 10:11:15;;;;;;;14.23;7.03;;;;;;;;;;5042917;28;20052;-84
2021/09/05 10:13:41;;;;;;;12.05;7.80;;;;;;;;;;5041935;28;20037;-81
2021/09/05 10:16:09;;;;;;;11.13;7.68;;;;;;;;;;5060166;28;20043;-80
2021/09/05 10:18:38;;;;;;;20.88;8.43;;;;;;;;;;5043038;28;20071;-79
2021/09/05 10:21:05;;;;;;;13.52;8.00;;;;;;;;;;5044873;28;20059;-81
2021/09/05 10:23:35;;;;;;;14.00;8.63;;;;;;;;;;5044343;28;20127;-82
2021/09/05 10:26:07;;;;;;;12.38;7.70;;;;;;;;;;5044536;28;20037;-82
2021/09/05 10:28:39;;;;;;;13.88;7.40;;;;;;;;;;5044607;28;20104;-80
2021/09/05 10:31:09;;;;;;;15.10;7.95;;;;;;;;;;5061016;28;20033;-83
2021/09/05 10:33:42;;;;;;;12.27;8.05;;;;;;;;;;5062940;28;20057;-83
2021/09/05 10:36:08;;;;;;;13.50;7.93;;;;;;;;;;5046783;28;20048;-83
2021/09/05 10:38:35;;;;;;;18.05;8.60;;;;;;;;;;5045606;28;20037;-83
2021/09/05 10:41:06;;;;;;;11.00;7.30;;;;;;;;;;5047372;28;20113;-83
2021/09/05 10:43:47;;;;;;;10.60;7.18;;;;;;;;;;5043042;28;20033;-81
2021/09/05 10:46:18;;;;;;;10.52;7.78;;;;;;;;;;5041899;28;20060;-78
2021/09/05 10:48:48;;;;;;;14.98;7.75;;;;;;;;;;5056428;28;20071;-77
2021/09/05 10:51:22;;;;;;;12.20;7.65;;;;;;;;;;5058029;28;20033;-84
2021/09/05 10:54:06;;;;;;;15.07;7.57;;;;;;;;;;5045107;28;20029;-83
2021/09/05 10:56:33;;;;;;;13.48;8.15;;;;;;;;;;5036223;28;20037;-84
2021/09/05 10:59:06;;;;;;;13.27;8.13;;;;;;;;;;5044468;28;20044;-84
2021/09/05 11:01:34;;;;;;;13.68;8.68;;;;;;;;;;5046820;28;20033;-79
2021/09/05 11:04:15;;;;;;;13.98;8.63;;;;;;;;;;5033952;28;20495;-79
2021/09/05 11:06:41;;;;;;;19.25;9.10;;;;;;;;;;5060467;28;20039;-81
2021/09/05 11:09:20;;;;;;;13.82;9.13;;;;;;;;;;5029897;28;20036;-80
2021/09/05 11:12:03;;;;;;;14.10;7.93;;;;;;;;;;5043603;28;20060;-80
2021/09/05 11:14:40;;;;;;;12.48;8.38;;;;;;;;;;5030743;28;20049;-80
2021/09/05 11:17:07;;;;;;;14.80;9.80;;;;;;;;;;5041421;28;20458;-81
2021/09/05 11:19:52;;;;;;;10.75;7.97;;;;;;;;;;5050575;28;20037;-80
2021/09/05 11:22:48;;;;;;;11.07;8.23;;;;;;;;;;5036062;28;20041;-80
2021/09/05 11:25:19;;;;;;;10.98;7.85;;;;;;;;;;5025298;28;20375;-81
2021/09/05 11:27:50;;;;;;;14.68;8.52;;;;;;;;;;5046857;28;20076;-80
2021/09/05 11:30:17;;;;;;;11.13;6.75;;;;;;;;;;5029484;28;20037;-87
2021/09/05 11:32:46;;;;;;;14.20;7.38;;;;;;;;;;5028105;28;20167;-81
2021/09/05 11:35:13;;;;;;;14.50;8.02;;;;;;;;;;5042427;28;20033;-81
2021/09/05 11:37:44;;;;;;;15.50;7.97;;;;;;;;;;5041379;28;20502;-80
2021/09/05 11:40:16;;;;;;;10.80;7.30;;;;;;;;;;5044272;28;20029;-80
2021/09/05 11:42:45;;;;;;;13.25;8.05;;;;;;;;;;5062873;28;20475;-80
2021/09/05 11:45:13;;;;;;;11.98;7.95;;;;;;;;;;5045701;28;20124;-81
2021/09/05 11:47:39;;;;;;;12.63;8.35;;;;;;;;;;5046436;28;20029;-81
2021/09/05 11:50:06;;;;;;;11.70;7.68;;;;;;;;;;5046530;28;20127;-81
2021/09/05 11:52:35;;;;;;;12.10;7.75;;;;;;;;;;5065042;28;20138;-80
2021/09/05 11:55:13;;;;;;;12.38;7.82;;;;;;;;;;5047222;28;20044;-81
2021/09/05 11:57:56;;;;;;;10.60;7.32;;;;;;;;;;5065749;28;20025;-80
2021/09/05 12:00:25;;;;;;;20.73;12.23;;;;;;;;;;5052996;28;20079;-80
2021/09/05 12:02:51;;;;;;;21.60;14.45;;;;;;;;;;5055151;28;20025;-81
2021/09/05 12:05:20;;;;;;;14.10;7.50;;;;;;;;;;5053462;28;20033;-81
2021/09/05 12:07:48;;;;;;;11.35;7.47;;;;;;;;;;5054343;28;20047;-81
2021/09/05 12:10:19;;;;;;;8.88;7.00;;;;;;;;;;5053132;28;20029;-81
2021/09/05 12:13:01;;;;;;;14.25;8.35;;;;;;;;;;5052921;28;20097;-81
2021/09/05 12:15:32;;;;;;;11.43;7.85;;;;;;;;;;5047464;28;20030;-80
2021/09/05 12:17:58;;;;;;;15.07;8.32;;;;;;;;;;5053418;28;20021;-80
2021/09/05 12:20:24;;;;;;;12.57;8.60;;;;;;;;;;5038834;28;20044;-80
2021/09/05 12:22:56;;;;;;;11.65;8.07;;;;;;;;;;5029075;28;20040;-80
2021/09/05 12:25:31;;;;;;;11.57;8.93;;;;;;;;;;5047796;28;20033;-80
2021/09/05 12:27:58;;;;;;;13.10;9.43;;;;;;;;;;5029252;28;20033;-79
2021/09/05 12:30:48;;;;;;;13.68;9.55;;;;;;;;;;5028428;28;20467;-80
2021/09/05 12:33:20;;;;;;;13.55;8.98;;;;;;;;;;5023548;28;20129;-79
2021/09/05 12:35:51;;;;;;;12.15;9.02;;;;;;;;;;5028667;28;20428;-80
2021/09/05 12:38:26;;;;;;;16.83;9.30;;;;;;;;;;5034969;28;20123;-80
2021/09/05 12:40:53;;;;;;;15.35;8.85;;;;;;;;;;5051143;28;20037;-80
2021/09/05 12:43:49;;;;;;;13.27;9.55;;;;;;;;;;5066081;28;20033;-79
2021/09/05 12:46:19;;;;;;;13.10;8.25;;;;;;;;;;5048167;28;20044;-80
2021/09/05 12:48:48;;;;;;;15.90;8.82;;;;;;;;;;5065676;28;20039;-80
2021/09/05 12:51:21;;;;;;;11.70;8.35;;;;;;;;;;5066794;28;20043;-80
2021/09/05 12:54:03;;;;;;;12.60;9.38;;;;;;;;;;5052017;28;20554;-80
2021/09/05 12:56:29;;;;;;;10.73;8.35;;;;;;;;;;5051796;28;20036;-80
2021/09/05 12:58:55;;;;;;;12.05;8.77;;;;;;;;;;5066002;28;20060;-80
2021/09/05 13:01:26;;;;;;;13.48;9.23;;;;;;;;;;5070394;28;20040;-80
2021/09/05 13:03:52;;;;;;;15.20;9.88;;;;;;;;;;5067667;28;20088;-80
2021/09/05 13:06:21;;;;;;;11.40;9.02;;;;;;;;;;5070467;28;20029;-80
2021/09/05 13:08:48;;;;;;;11.93;8.93;;;;;;;;;;5066125;28;20084;-79
2021/09/05 13:11:15;;;;;;;12.02;10.10;;;;;;;;;;5078947;28;20466;-78
2021/09/05 13:13:42;;;;;;;13.07;9.70;;;;;;;;;;5074750;28;20040;-77
2021/09/05 13:16:08;;;;;;;14.95;9.07;;;;;;;;;;5075380;28;20028;-77
2021/09/05 13:18:34;;;;;;;13.40;9.70;;;;;;;;;;5076343;28;20058;-79
2021/09/05 13:21:01;;;;;;;15.00;10.00;;;;;;;;;;5076833;28;20072;-78
2021/09/05 13:23:27;;;;;;;12.13;9.65;;;;;;;;;;5054553;28;20039;-77
2021/09/05 13:25:54;;;;;;;12.98;9.82;;;;;;;;;;5053849;28;20125;-77
2021/09/05 13:28:20;;;;;;;12.38;9.20;;;;;;;;;;5054240;28;20039;-77
2021/09/05 13:30:49;;;;;;;13.85;8.80;;;;;;;;;;5040410;28;20053;-80
2021/09/05 13:33:16;;;;;;;12.57;10.10;;;;;;;;;;5040709;28;20044;-79
2021/09/05 13:35:42;;;;;;;15.07;10.68;;;;;;;;;;5056716;28;20052;-79
2021/09/05 13:38:08;;;;;;;15.45;10.95;;;;;;;;;;5061194;28;20051;-79
2021/09/05 13:40:34;;;;;;;13.85;10.25;;;;;;;;;;5059438;28;20051;-78
2021/09/05 13:43:00;;;;;;;13.65;10.73;;;;;;;;;;5073558;28;20032;-79
2021/09/05 13:45:26;;;;;;;13.88;11.30;;;;;;;;;;5021872;28;20044;-82
2021/09/05 13:47:52;;;;;;;12.40;9.50;;;;;;;;;;5036525;28;20038;-79
2021/09/05 13:50:18;;;;;;;15.45;10.60;;;;;;;;;;5034841;28;20108;-78
2021/09/05 13:52:44;;;;;;;13.13;9.88;;;;;;;;;;5036059;28;20065;-78
2021/09/05 13:55:10;;;;;;;14.05;10.27;;;;;;;;;;5017937;28;20041;-79
2021/09/05 13:57:38;;;;;;;17.05;13.32;;;;;;;;;;5054063;28;20025;-78
2021/09/05 14:00:05;;;;;;;11.07;9.30;;;;;;;;;;5074585;28;20052;-77
2021/09/05 14:02:37;;;;;;;12.88;9.07;;;;;;;;;;5075640;28;20086;-79
2021/09/05 14:05:05;;;;;;;13.73;8.75;;;;;;;;;;5036473;28;20033;-78
2021/09/05 14:07:31;;;;;;;13.38;9.02;;;;;;;;;;5017228;28;20029;-80
2021/09/05 14:09:58;;;;;;;12.25;8.50;;;;;;;;;;5045556;28;20033;-78
2021/09/05 14:12:24;;;;;;;12.50;8.55;;;;;;;;;;5054222;28;20483;-77
2021/09/05 14:14:51;;;;;;;11.23;8.38;;;;;;;;;;5052922;28;20029;-77
2021/09/05 14:17:17;;;;;;;11.45;8.90;;;;;;;;;;5052882;28;20095;-78
2021/09/05 14:19:43;;;;;;;13.18;9.90;;;;;;;;;;5052569;28;20494;-77
2021/09/05 14:22:10;;;;;;;10.38;8.80;;;;;;;;;;5054236;28;20025;-79
2021/09/05 14:24:36;;;;;;;11.13;8.70;;;;;;;;;;5053641;28;20114;-78
2021/09/05 14:27:08;;;;;;;12.32;9.55;;;;;;;;;;5053861;28;20033;-78
2021/09/05 14:48:20;;;;;;;15.80;10.73;;;;;;;;;;5055833;28;20462;-78
2021/09/05 14:55:50;;;;;;;13.57;10.75;;;;;;;;;;5054210;28;20116;-77
2021/09/05 14:58:16;;;;;;;13.85;10.13;;;;;;;;;;5054718;28;20059;-78
2021/09/05 15:00:43;;;;;;;12.95;10.00;;;;;;;;;;5056717;28;20028;-78
2021/09/05 15:03:25;;;;;;;11.73;10.43;;;;;;;;;;5058494;28;20419;-78
2021/09/05 15:11:08;;;;;;;17.50;11.30;;;;;;;;;;5060589;28;20502;-77
2021/09/05 15:13:36;;;;;;;15.18;10.93;;;;;;;;;;5057782;28;20040;-78
2021/09/05 15:16:03;;;;;;;12.32;9.88;;;;;;;;;;5037488;28;20029;-77
2021/09/05 15:18:29;;;;;;;14.70;10.18;;;;;;;;;;5058816;28;20025;-77
2021/09/05 15:20:55;;;;;;;14.63;9.45;;;;;;;;;;5037903;28;20028;-78
2021/09/05 15:23:25;;;;;;;11.45;9.23;;;;;;;;;;5053944;28;20083;-77
2021/09/05 15:25:50;;;;;;;14.82;10.40;;;;;;;;;;5040195;28;20090;-78